Time;durP1;ratioP1;P1;durP2;ratioP2;P2;SDS_P1;SDS_P2;PMS_P1;PMS_P2;Temp;Humidity;BMP_temperature;BMP_pressure;BME280_temperature;BME280_humidity;BME280_pressure;Samples;Min_cycle;Max_cycle;Signal;HPM_P1;HPM_P2
2023/12/27 00:01:08;;;;;;;3.93;1.60;;;;;5.40;101591.00;;;;5045300;28;20244;-72
2023/12/27 00:03:55;;;;;;;5.37;1.70;;;;;5.30;101585.00;;;;5046690;28;20328;-71
2023/12/27 00:06:41;;;;;;;4.50;1.93;;;;;5.30;101581.00;;;;5036713;28;20712;-70
2023/12/27 00:09:28;;;;;;;4.50;2.37;;;;;5.30;101584.00;;;;5038988;28;20287;-72
2023/12/27 00:12:16;;;;;;;3.43;2.10;;;;;5.20;101590.00;;;;5045915;28;20605;-72
2023/12/27 00:15:02;;;;;;;10.10;2.13;;;;;5.20;101583.00;;;;5040637;28;20231;-73
2023/12/27 00:17:49;;;;;;;2.97;1.90;;;;;5.20;101576.00;;;;5036058;28;20315;-72
2023/12/27 00:20:35;;;;;;;2.33;1.87;;;;;5.20;101588.00;;;;5039539;28;20264;-73
2023/12/27 00:23:22;;;;;;;2.53;1.97;;;;;5.10;101590.00;;;;5039505;28;20310;-72
2023/12/27 00:26:08;;;;;;;6.40;2.03;;;;;5.10;101585.00;;;;5039574;28;20225;-75
2023/12/27 00:28:56;;;;;;;2.13;1.53;;;;;5.00;101584.00;;;;5037619;28;20808;-72
2023/12/27 00:31:43;;;;;;;1.90;1.60;;;;;5.10;101566.00;;;;5033748;28;20241;-72
2023/12/27 00:34:29;;;;;;;2.70;2.10;;;;;5.10;101566.00;;;;5039279;28;20228;-72
2023/12/27 00:37:15;;;;;;;4.73;2.67;;;;;5.20;101568.00;;;;5041720;28;20733;-72
2023/12/27 00:40:02;;;;;;;1.73;1.63;;;;;5.10;101566.00;;;;5041636;28;20232;-72
2023/12/27 00:42:48;;;;;;;3.37;1.90;;;;;5.10;101559.00;;;;5043736;28;20379;-72
2023/12/27 00:45:36;;;;;;;1.87;1.67;;;;;5.00;101564.00;;;;5041181;28;20228;-71
2023/12/27 00:48:23;;;;;;;4.27;2.23;;;;;5.00;101555.00;;;;5043713;28;20306;-72
2023/12/27 00:51:18;;;;;;;6.03;2.20;;;;;4.90;101563.00;;;;5046240;28;20225;-73
2023/12/27 00:54:04;;;;;;;3.70;1.70;;;;;4.90;101568.00;;;;5041042;28;20279;-75
2023/12/27 00:56:51;;;;;;;1.67;1.50;;;;;4.90;101564.00;;;;5045626;28;20741;-72
2023/12/27 00:59:37;;;;;;;2.13;1.60;;;;;4.90;101558.00;;;;5036879;28;20232;-74
2023/12/27 01:02:25;;;;;;;1.77;1.50;;;;;4.80;101566.00;;;;5036663;28;20704;-72
2023/12/27 01:05:11;;;;;;;2.37;1.77;;;;;4.90;101563.00;;;;5042650;28;20355;-74
2023/12/27 01:07:58;;;;;;;5.57;2.10;;;;;4.70;101563.00;;;;5037691;28;20266;-72
2023/12/27 01:10:44;;;;;;;2.53;1.67;;;;;4.80;101560.00;;;;5039059;28;20351;-74
2023/12/27 01:13:31;;;;;;;5.93;2.10;;;;;4.80;101556.00;;;;5045131;28;20231;-72
2023/12/27 01:16:17;;;;;;;2.70;2.10;;;;;4.80;101555.00;;;;5040131;28;20367;-72
2023/12/27 01:19:05;;;;;;;5.80;2.50;;;;;4.70;101563.00;;;;5038720;28;20233;-73
2023/12/27 01:21:52;;;;;;;3.43;2.43;;;;;4.70;101549.00;;;;5041346;28;20290;-72
2023/12/27 01:24:39;;;;;;;1.97;1.60;;;;;4.70;101548.00;;;;5040939;28;20228;-73
2023/12/27 01:27:25;;;;;;;6.47;1.50;;;;;4.60;101546.00;;;;5042936;28;20240;-73
2023/12/27 01:30:12;;;;;;;2.77;2.03;;;;;4.60;101563.00;;;;5043773;28;20224;-72
2023/12/27 01:32:59;;;;;;;5.43;2.33;;;;;4.60;101538.00;;;;5044830;28;20914;-72
2023/12/27 01:35:46;;;;;;;3.87;2.43;;;;;4.50;101544.00;;;;5041020;28;20244;-73
2023/12/27 01:38:33;;;;;;;3.37;1.67;;;;;4.40;101549.00;;;;5041093;28;20291;-72
2023/12/27 01:41:19;;;;;;;7.50;2.07;;;;;4.40;101543.00;;;;5044132;28;20221;-72
2023/12/27 01:44:05;;;;;;;3.23;2.37;;;;;4.40;101544.00;;;;5037535;28;20757;-72
2023/12/27 01:46:52;;;;;;;1.93;1.70;;;;;4.30;101545.00;;;;5041228;28;20764;-73
2023/12/27 01:49:38;;;;;;;4.10;2.23;;;;;4.30;101550.00;;;;5036096;28;20255;-71
2023/12/27 01:52:26;;;;;;;2.77;1.73;;;;;4.30;101544.00;;;;5041240;28;20369;-74
2023/12/27 01:55:14;;;;;;;4.37;1.60;;;;;4.30;101557.00;;;;5042654;28;20355;-72
2023/12/27 01:58:01;;;;;;;4.17;2.00;;;;;4.20;101556.00;;;;5038936;28;20311;-73
2023/12/27 02:00:48;;;;;;;2.50;1.70;;;;;4.20;101557.00;;;;5042614;28;20236;-73
2023/12/27 02:03:34;;;;;;;4.20;2.30;;;;;4.20;101564.00;;;;5035294;28;20701;-71
2023/12/27 02:06:22;;;;;;;5.47;2.47;;;;;4.00;101554.00;;;;5041537;28;20290;-72
2023/12/27 02:09:10;;;;;;;3.87;2.20;;;;;4.00;101554.00;;;;5037475;28;20253;-73
2023/12/27 02:11:57;;;;;;;4.43;2.37;;;;;4.10;101550.00;;;;5041343;28;20694;-72
2023/12/27 02:14:43;;;;;;;7.67;2.50;;;;;4.10;101552.00;;;;5037039;28;20709;-73
2023/12/27 02:17:30;;;;;;;2.93;2.17;;;;;4.20;101561.00;;;;5039133;28;20229;-72
2023/12/27 02:20:17;;;;;;;10.50;2.00;;;;;4.10;101568.00;;;;5038067;28;20260;-72
2023/12/27 02:23:07;;;;;;;4.30;2.27;;;;;4.10;101548.00;;;;5036515;28;20788;-73
2023/12/27 02:25:56;;;;;;;2.50;1.70;;;;;4.10;101572.00;;;;5039162;28;20282;-72
2023/12/27 02:28:43;;;;;;;2.00;1.80;;;;;4.20;101571.00;;;;5041334;28;20227;-72
2023/12/27 02:31:29;;;;;;;3.30;2.40;;;;;4.20;101564.00;;;;5036961;28;20294;-72
2023/12/27 02:34:16;;;;;;;2.77;2.07;;;;;4.20;101573.00;;;;5039470;28;20264;-73
2023/12/27 02:37:03;;;;;;;5.10;2.13;;;;;4.10;101556.00;;;;5039992;28;20228;-73
2023/12/27 02:39:49;;;;;;;2.67;2.00;;;;;4.10;101553.00;;;;5043082;28;20244;-73
2023/12/27 02:42:38;;;;;;;3.83;2.10;;;;;4.10;101554.00;;;;5036677;28;20757;-74
2023/12/27 02:45:25;;;;;;;7.50;2.63;;;;;4.10;101538.00;;;;5039529;28;20404;-73
2023/12/27 02:48:11;;;;;;;8.23;3.53;;;;;4.10;101525.00;;;;5035550;28;20232;-71
2023/12/27 02:50:58;;;;;;;3.93;2.97;;;;;4.00;101533.00;;;;5040047;28;20245;-72
2023/12/27 02:53:44;;;;;;;3.60;2.50;;;;;4.10;101522.00;;;;5030068;28;20245;-73
2023/12/27 02:56:31;;;;;;;4.93;2.53;;;;;4.10;101523.00;;;;5039310;28;20900;-72
2023/12/27 02:59:19;;;;;;;2.73;2.30;;;;;4.10;101517.00;;;;5035453;28;20654;-74
2023/12/27 03:02:05;;;;;;;4.53;2.47;;;;;4.10;101509.00;;;;5037953;28;20876;-72
2023/12/27 03:04:51;;;;;;;6.37;2.83;;;;;4.10;101513.00;;;;5041984;28;20232;-74
2023/12/27 03:07:38;;;;;;;4.63;3.00;;;;;4.20;101519.00;;;;5042170;28;20356;-74
2023/12/27 03:10:24;;;;;;;4.07;2.90;;;;;4.20;101503.00;;;;5042371;28;20318;-72
2023/12/27 03:13:11;;;;;;;2.33;1.93;;;;;4.20;101494.00;;;;5035691;28;20304;-73
2023/12/27 03:15:58;;;;;;;4.90;2.20;;;;;4.20;101497.00;;;;5033731;28;20228;-72
2023/12/27 03:18:45;;;;;;;11.37;2.93;;;;;4.10;101497.00;;;;5042330;28;20317;-73
2023/12/27 03:21:32;;;;;;;12.03;2.30;;;;;4.20;101491.00;;;;5044785;28;20240;-72
2023/12/27 03:24:19;;;;;;;3.43;2.23;;;;;4.10;101491.00;;;;5044973;28;20886;-73
2023/12/27 03:27:05;;;;;;;3.07;2.13;;;;;4.10;101484.00;;;;5044477;28;20248;-72
2023/12/27 03:29:51;;;;;;;6.60;2.60;;;;;4.10;101486.00;;;;5041707;28;20244;-70
2023/12/27 03:32:39;;;;;;;3.27;2.30;;;;;4.10;101483.00;;;;5040860;28;20363;-72
2023/12/27 03:35:26;;;;;;;2.50;2.30;;;;;4.00;101483.00;;;;5044635;28;20240;-72
2023/12/27 03:38:12;;;;;;;2.87;2.50;;;;;4.00;101484.00;;;;5042844;28;20240;-72
2023/12/27 03:40:59;;;;;;;3.53;2.03;;;;;4.00;101489.00;;;;5046144;28;20275;-73
2023/12/27 03:43:45;;;;;;;8.47;2.70;;;;;3.90;101490.00;;;;5039899;28;20253;-74
2023/12/27 03:46:31;;;;;;;4.07;2.13;;;;;3.90;101479.00;;;;5036354;28;20852;-72
2023/12/27 03:49:19;;;;;;;3.90;2.43;;;;;3.90;101470.00;;;;5043685;28;20235;-73
2023/12/27 03:52:06;;;;;;;3.33;2.10;;;;;3.80;101474.00;;;;5038883;28;20233;-72
2023/12/27 03:54:52;;;;;;;2.20;2.00;;;;;3.90;101485.00;;;;5037963;28;20287;-73
2023/12/27 03:57:39;;;;;;;4.93;2.70;;;;;3.90;101480.00;;;;5037752;28;20360;-72
2023/12/27 04:00:25;;;;;;;2.80;2.23;;;;;3.80;101472.00;;;;5044511;28;20228;-73
2023/12/27 04:03:12;;;;;;;9.70;3.00;;;;;3.80;101467.00;;;;5041054;28;20224;-73
2023/12/27 04:05:59;;;;;;;3.07;2.17;;;;;3.90;101463.00;;;;5045392;28;20263;-72
2023/12/27 04:08:47;;;;;;;5.00;2.17;;;;;3.90;101471.00;;;;5036384;28;20777;-72
2023/12/27 04:11:34;;;;;;;2.33;1.97;;;;;3.80;101478.00;;;;5046761;28;20220;-70
2023/12/27 04:14:20;;;;;;;2.10;1.90;;;;;3.80;101478.00;;;;5043714;28;20240;-72
2023/12/27 04:17:10;;;;;;;10.03;2.37;;;;;3.80;101477.00;;;;5043586;28;20250;-72
2023/12/27 04:19:56;;;;;;;2.30;1.90;;;;;3.80;101475.00;;;;5043395;28;20698;-72
2023/12/27 04:22:43;;;;;;;3.73;2.10;;;;;3.80;101478.00;;;;5043483;28;20450;-73
2023/12/27 04:25:30;;;;;;;4.67;2.70;;;;;3.90;101484.00;;;;5041375;28;20240;-72
2023/12/27 04:28:17;;;;;;;2.47;2.03;;;;;3.90;101471.00;;;;5043650;28;20232;-74
2023/12/27 04:31:03;;;;;;;2.97;2.10;;;;;3.90;101484.00;;;;5035257;28;20233;-71
2023/12/27 04:33:50;;;;;;;5.70;2.80;;;;;4.00;101483.00;;;;5040536;28;20236;-72
2023/12/27 04:36:37;;;;;;;3.50;1.90;;;;;3.80;101454.00;;;;5045019;28;20232;-72
2023/12/27 04:39:25;;;;;;;3.23;2.33;;;;;3.90;101459.00;;;;5042692;28;20232;-73
2023/12/27 04:42:11;;;;;;;2.67;2.23;;;;;3.80;101461.00;;;;5045716;28;20229;-73
2023/12/27 04:44:58;;;;;;;1.60;1.50;;;;;3.90;101479.00;;;;5038849;28;20228;-73
2023/12/27 04:47:45;;;;;;;2.80;1.93;;;;;3.90;101458.00;;;;5038965;28;20291;-73
2023/12/27 04:50:31;;;;;;;2.90;1.83;;;;;3.90;101441.00;;;;5043226;28;20236;-73
2023/12/27 04:53:18;;;;;;;6.40;2.90;;;;;3.90;101447.00;;;;5041998;28;20244;-72
2023/12/27 04:56:06;;;;;;;3.03;2.30;;;;;3.90;101443.00;;;;5043144;28;20603;-74
2023/12/27 04:58:52;;;;;;;4.07;3.03;;;;;3.90;101428.00;;;;5036744;28;20237;-74
2023/12/27 05:01:39;;;;;;;3.00;2.70;;;;;3.90;101423.00;;;;5042644;28;20225;-71
2023/12/27 05:04:25;;;;;;;2.97;2.27;;;;;3.90;101419.00;;;;5044924;28;20232;-73
2023/12/27 05:07:11;;;;;;;5.73;2.33;;;;;3.90;101407.00;;;;5038899;28;20232;-74
2023/12/27 05:09:58;;;;;;;3.57;2.70;;;;;3.90;101415.00;;;;5043604;28;20383;-73
2023/12/27 05:12:45;;;;;;;4.47;2.60;;;;;4.00;101417.00;;;;5040495;28;20768;-72
2023/12/27 05:15:32;;;;;;;9.33;3.30;;;;;4.00;101409.00;;;;5041509;28;20239;-74
2023/12/27 05:18:19;;;;;;;3.40;3.10;;;;;4.00;101411.00;;;;5041879;28;20295;-74
2023/12/27 05:21:05;;;;;;;3.43;2.90;;;;;4.00;101404.00;;;;5043823;28;20315;-73
2023/12/27 05:23:52;;;;;;;3.50;2.00;;;;;4.00;101405.00;;;;5043438;28;20236;-73
2023/12/27 05:26:38;;;;;;;2.57;2.00;;;;;3.90;101393.00;;;;5038078;28;20244;-73
2023/12/27 05:29:26;;;;;;;5.43;2.97;;;;;4.00;101408.00;;;;5040245;28;20722;-72
2023/12/27 05:32:15;;;;;;;2.47;2.20;;;;;3.90;101404.00;;;;5035414;28;20229;-72
2023/12/27 05:35:02;;;;;;;4.10;2.63;;;;;4.00;101401.00;;;;5032914;28;20367;-72
2023/12/27 05:37:49;;;;;;;3.70;2.37;;;;;4.00;101401.00;;;;5041132;28;20827;-73
2023/12/27 05:40:35;;;;;;;7.47;2.77;;;;;4.10;101406.00;;;;5043189;28;20224;-73
2023/12/27 05:43:21;;;;;;;5.20;2.87;;;;;4.10;101393.00;;;;5043722;28;20359;-73
2023/12/27 05:46:09;;;;;;;6.13;3.00;;;;;4.20;101404.00;;;;5038850;28;20260;-72
2023/12/27 05:48:56;;;;;;;4.73;2.80;;;;;4.30;101399.00;;;;5037343;28;20233;-73
2023/12/27 05:51:43;;;;;;;3.80;2.40;;;;;4.30;101401.00;;;;5035444;28;20279;-73
2023/12/27 05:54:29;;;;;;;3.37;2.63;;;;;4.30;101393.00;;;;5040562;28;20239;-72
2023/12/27 05:57:15;;;;;;;8.87;2.80;;;;;4.30;101389.00;;;;5037498;28;20648;-73
2023/12/27 06:00:02;;;;;;;5.87;2.67;;;;;4.30;101382.00;;;;5040573;28;20276;-72
2023/12/27 06:02:50;;;;;;;2.73;2.53;;;;;4.30;101385.00;;;;5041972;28;20244;-73
2023/12/27 06:05:37;;;;;;;5.33;3.00;;;;;4.30;101388.00;;;;5043098;28;20241;-72
2023/12/27 06:08:23;;;;;;;7.27;3.57;;;;;4.40;101394.00;;;;5043306;28;20233;-73
2023/12/27 06:11:12;;;;;;;4.87;3.43;;;;;4.40;101398.00;;;;5039762;28;20271;-74
2023/12/27 06:13:58;;;;;;;4.50;3.20;;;;;4.50;101389.00;;;;5042055;28;20956;-73
2023/12/27 06:16:44;;;;;;;4.80;3.30;;;;;4.50;101388.00;;;;5035557;28;20371;-73
2023/12/27 06:19:32;;;;;;;6.23;3.73;;;;;4.50;101386.00;;;;5034650;28;20228;-72
2023/12/27 06:22:19;;;;;;;4.13;3.00;;;;;4.60;101377.00;;;;5042872;28;20268;-72
2023/12/27 06:25:06;;;;;;;7.77;3.57;;;;;4.60;101370.00;;;;5041752;28;20294;-72
2023/12/27 06:27:54;;;;;;;8.43;3.57;;;;;4.60;101382.00;;;;5042061;28;20240;-73
2023/12/27 06:30:41;;;;;;;13.10;4.87;;;;;4.60;101363.00;;;;5038815;28;20232;-73
2023/12/27 06:33:27;;;;;;;7.83;4.47;;;;;4.70;101365.00;;;;5034510;28;20801;-73
2023/12/27 06:36:15;;;;;;;6.27;3.87;;;;;4.80;101363.00;;;;5041766;28;20244;-73
2023/12/27 06:39:01;;;;;;;8.13;3.60;;;;;4.80;101350.00;;;;5041649;28;20408;-74
2023/12/27 06:41:48;;;;;;;6.07;3.60;;;;;4.80;101355.00;;;;5040869;28;20221;-72
2023/12/27 06:44:34;;;;;;;8.13;4.00;;;;;4.80;101366.00;;;;5036044;28;20225;-72
2023/12/27 06:47:20;;;;;;;7.83;3.50;;;;;4.80;101339.00;;;;5037699;28;20228;-72
2023/12/27 06:50:08;;;;;;;9.53;3.33;;;;;4.90;101348.00;;;;5035185;28;20229;-72
2023/12/27 06:52:56;;;;;;;6.10;3.63;;;;;5.00;101361.00;;;;5035758;28;21046;-74
2023/12/27 06:55:42;;;;;;;8.77;4.17;;;;;5.10;101356.00;;;;5038573;28;20727;-74
2023/12/27 06:58:29;;;;;;;9.73;4.10;;;;;5.10;101340.00;;;;5042208;28;20351;-73
2023/12/27 07:01:15;;;;;;;6.83;4.47;;;;;5.20;101334.00;;;;5039263;28;20749;-72
2023/12/27 07:04:02;;;;;;;7.57;4.90;;;;;5.20;101327.00;;;;5035049;28;20236;-73
2023/12/27 07:06:48;;;;;;;7.60;3.93;;;;;5.20;101323.00;;;;5040166;28;20741;-72
2023/12/27 07:09:36;;;;;;;9.67;5.07;;;;;5.20;101316.00;;;;5040213;28;20252;-73
2023/12/27 07:12:23;;;;;;;7.60;4.23;;;;;5.20;101305.00;;;;5033567;28;20947;-73
2023/12/27 07:15:11;;;;;;;10.40;5.63;;;;;5.20;101297.00;;;;5035200;28;20331;-74
2023/12/27 07:17:57;;;;;;;14.20;6.73;;;;;5.30;101306.00;;;;5042639;28;20308;-73
2023/12/27 07:20:45;;;;;;;20.17;8.57;;;;;5.30;101305.00;;;;5042465;28;20252;-74
2023/12/27 07:23:32;;;;;;;17.50;7.43;;;;;5.30;101298.00;;;;5036777;28;20725;-71
2023/12/27 07:26:20;;;;;;;15.10;7.23;;;;;5.40;101291.00;;;;5036481;28;20223;-74
2023/12/27 07:29:06;;;;;;;15.67;6.27;;;;;5.40;101293.00;;;;5031098;28;20926;-74
2023/12/27 07:31:53;;;;;;;10.80;5.47;;;;;5.50;101300.00;;;;5038914;28;21815;-73
2023/12/27 07:34:40;;;;;;;15.10;5.77;;;;;5.40;101280.00;;;;5038469;28;20855;-76
2023/12/27 07:37:26;;;;;;;12.17;6.17;;;;;5.50;101290.00;;;;5040015;28;20233;-73
2023/12/27 07:40:13;;;;;;;12.27;5.57;;;;;5.50;101279.00;;;;5033170;28;20221;-73
2023/12/27 07:43:02;;;;;;;15.30;7.03;;;;;5.50;101287.00;;;;5037884;28;20236;-73
2023/12/27 07:45:48;;;;;;;13.77;6.83;;;;;5.50;101279.00;;;;5036722;28;20248;-73
2023/12/27 07:48:35;;;;;;;12.47;6.83;;;;;5.50;101271.00;;;;5039778;28;20611;-74
2023/12/27 07:51:21;;;;;;;17.53;5.50;;;;;5.50;101282.00;;;;5035238;28;20308;-74
2023/12/27 07:54:07;;;;;;;9.87;6.13;;;;;5.50;101275.00;;;;5034931;28;20302;-73
2023/12/27 07:56:54;;;;;;;9.77;6.23;;;;;5.60;101272.00;;;;5039156;28;20783;-72
2023/12/27 07:59:42;;;;;;;14.50;5.27;;;;;5.70;101271.00;;;;5038889;28;20240;-74
2023/12/27 08:02:28;;;;;;;10.47;5.53;;;;;5.70;101271.00;;;;5036646;28;21006;-74
2023/12/27 08:05:15;;;;;;;19.33;6.23;;;;;5.70;101273.00;;;;5041078;28;20221;-74
2023/12/27 08:08:03;;;;;;;16.77;5.43;;;;;5.70;101277.00;;;;5042025;28;20233;-75
2023/12/27 08:10:49;;;;;;;10.80;5.30;;;;;5.70;101265.00;;;;5045384;28;20992;-71
2023/12/27 08:13:36;;;;;;;13.20;6.20;;;;;5.70;101266.00;;;;5043447;28;20356;-72
2023/12/27 08:16:25;;;;;;;10.57;6.17;;;;;5.60;101267.00;;;;5041177;28;20252;-71
2023/12/27 08:19:11;;;;;;;14.37;5.50;;;;;5.60;101257.00;;;;5042513;28;20399;-73
2023/12/27 08:21:58;;;;;;;12.03;5.07;;;;;5.70;101262.00;;;;5046394;28;20224;-71
2023/12/27 08:24:44;;;;;;;13.40;6.17;;;;;5.70;101253.00;;;;5043193;28;20233;-72
2023/12/27 08:27:31;;;;;;;9.93;5.80;;;;;5.60;101247.00;;;;5044254;28;20228;-69
2023/12/27 08:30:17;;;;;;;10.57;5.90;;;;;5.70;101246.00;;;;5042332;28;20934;-76
2023/12/27 08:33:06;;;;;;;15.90;5.67;;;;;5.70;101242.00;;;;5038669;28;20232;-75
2023/12/27 08:35:53;;;;;;;12.77;6.27;;;;;5.80;101240.00;;;;5033275;28;20249;-76
2023/12/27 08:38:41;;;;;;;17.83;6.83;;;;;5.80;101258.00;;;;5038607;28;20271;-74
2023/12/27 08:41:28;;;;;;;14.60;6.20;;;;;5.80;101249.00;;;;5035479;28;20237;-71
2023/12/27 08:44:14;;;;;;;12.37;6.13;;;;;5.90;101252.00;;;;5035122;28;20314;-71
2023/12/27 08:47:01;;;;;;;13.23;5.80;;;;;5.90;101238.00;;;;5038308;28;20256;-72
2023/12/27 08:49:49;;;;;;;17.80;7.27;;;;;5.90;101235.00;;;;5041094;28;20646;-71
2023/12/27 08:52:36;;;;;;;12.37;5.87;;;;;6.00;101230.00;;;;5042906;28;20245;-72
2023/12/27 08:55:22;;;;;;;12.83;5.53;;;;;6.00;101225.00;;;;5038948;28;20221;-74
2023/12/27 08:58:09;;;;;;;13.57;6.83;;;;;6.00;101228.00;;;;5039158;28;20269;-74
2023/12/27 09:00:58;;;;;;;12.80;6.20;;;;;5.90;101222.00;;;;5038470;28;20229;-72
2023/12/27 09:03:44;;;;;;;19.30;7.17;;;;;5.90;101225.00;;;;5035032;28;20224;-72
2023/12/27 09:06:32;;;;;;;16.03;6.87;;;;;5.90;101221.00;;;;5039246;28;20233;-73
2023/12/27 09:09:20;;;;;;;9.60;4.87;;;;;5.90;101224.00;;;;5045051;28;20232;-72
2023/12/27 09:12:06;;;;;;;12.33;6.47;;;;;6.10;101217.00;;;;5041138;28;20232;-71
2023/12/27 09:14:53;;;;;;;11.57;5.37;;;;;6.00;101224.00;;;;5036630;28;20299;-73
2023/12/27 09:17:39;;;;;;;21.57;9.07;;;;;6.10;101222.00;;;;5041224;28;20244;-74
2023/12/27 09:20:26;;;;;;;9.67;5.33;;;;;6.00;101215.00;;;;5044415;28;20236;-73
2023/12/27 09:23:14;;;;;;;15.57;5.70;;;;;6.00;101226.00;;;;5033621;28;20303;-73
2023/12/27 09:26:00;;;;;;;10.00;5.23;;;;;6.10;101221.00;;;;5042876;28;20264;-73
2023/12/27 09:28:46;;;;;;;12.77;5.17;;;;;6.10;101224.00;;;;5042855;28;20232;-72
2023/12/27 09:31:33;;;;;;;9.17;5.50;;;;;6.20;101220.00;;;;5042381;28;20228;-71
2023/12/27 09:34:19;;;;;;;13.03;7.07;;;;;6.20;101205.00;;;;5037228;28;20221;-72
2023/12/27 09:37:06;;;;;;;8.97;5.70;;;;;6.20;101204.00;;;;5040881;28;20938;-72
2023/12/27 09:39:54;;;;;;;7.33;4.70;;;;;6.20;101199.00;;;;5040399;28;20740;-71
2023/12/27 09:42:41;;;;;;;14.77;6.03;;;;;6.20;101174.00;;;;5039293;28;20633;-72
2023/12/27 09:45:31;;;;;;;10.80;5.67;;;;;6.20;101179.00;;;;5040177;28;20318;-72
2023/12/27 09:48:18;;;;;;;16.97;5.63;;;;;6.30;101169.00;;;;5040558;28;20725;-71
2023/12/27 09:51:06;;;;;;;13.00;5.93;;;;;6.40;101180.00;;;;5041450;28;20601;-72
2023/12/27 09:53:53;;;;;;;12.07;5.83;;;;;6.40;101177.00;;;;5039315;28;20304;-72
2023/12/27 09:56:41;;;;;;;15.07;6.90;;;;;6.50;101168.00;;;;5038665;28;20237;-73
2023/12/27 09:59:29;;;;;;;15.30;6.37;;;;;6.50;101153.00;;;;5040412;28;20226;-72
2023/12/27 10:02:19;;;;;;;10.90;6.27;;;;;6.50;101158.00;;;;5041864;28;20252;-72
2023/12/27 10:05:14;;;;;;;20.13;8.20;;;;;6.50;101147.00;;;;5037328;28;20353;-72
2023/12/27 10:08:00;;;;;;;11.97;5.77;;;;;6.60;101144.00;;;;5030558;28;20295;-73
2023/12/27 10:10:48;;;;;;;13.80;5.53;;;;;6.60;101142.00;;;;5041528;28;20235;-72
2023/12/27 10:13:38;;;;;;;12.93;6.07;;;;;6.70;101147.00;;;;5037791;28;20236;-72
2023/12/27 10:16:25;;;;;;;9.00;5.20;;;;;6.70;101159.00;;;;5041085;28;20246;-72
2023/12/27 10:19:38;;;;;;;12.53;5.93;;;;;6.80;101159.00;;;;5043094;28;20255;-71
2023/12/27 10:22:25;;;;;;;10.43;4.77;;;;;6.80;101159.00;;;;5033443;28;20637;-70
2023/12/27 10:25:11;;;;;;;9.07;5.03;;;;;6.90;101154.00;;;;5038190;28;20366;-70
2023/12/27 10:27:58;;;;;;;9.93;5.37;;;;;6.90;101145.00;;;;5033212;28;20680;-71
2023/12/27 10:30:46;;;;;;;8.00;5.07;;;;;6.90;101142.00;;;;5040594;28;20237;-71
2023/12/27 10:33:42;;;;;;;9.77;5.43;;;;;6.90;101132.00;;;;5036729;28;20257;-70
2023/12/27 10:36:30;;;;;;;9.50;5.70;;;;;7.00;101123.00;;;;5032637;28;20663;-70
2023/12/27 10:39:18;;;;;;;13.17;6.20;;;;;7.00;101110.00;;;;5040941;28;20238;-69
2023/12/27 10:42:06;;;;;;;13.57;6.90;;;;;7.10;101088.00;;;;5042878;28;20233;-69
2023/12/27 10:44:53;;;;;;;15.57;6.80;;;;;7.10;101077.00;;;;5039850;28;20358;-69
2023/12/27 10:47:42;;;;;;;14.77;7.73;;;;;7.20;101083.00;;;;5040354;28;20758;-70
2023/12/27 10:50:30;;;;;;;12.03;6.37;;;;;7.20;101078.00;;;;5032185;28;20252;-70
2023/12/27 10:53:20;;;;;;;11.97;6.33;;;;;7.20;101070.00;;;;5037788;28;20712;-69
2023/12/27 10:56:07;;;;;;;13.73;6.57;;;;;7.30;101070.00;;;;5033539;28;20230;-71
2023/12/27 10:58:54;;;;;;;13.27;5.87;;;;;7.30;101073.00;;;;5040940;28;20321;-70
2023/12/27 11:01:42;;;;;;;11.40;5.50;;;;;7.40;101055.00;;;;5026950;28;20262;-70
2023/12/27 11:04:31;;;;;;;13.07;5.93;;;;;7.40;101055.00;;;;5040670;28;20232;-71
2023/12/27 11:07:19;;;;;;;8.70;4.67;;;;;7.50;101053.00;;;;5026721;28;20605;-73
2023/12/27 11:10:08;;;;;;;48.27;17.27;;;;;7.50;101030.00;;;;5039676;28;20668;-68
2023/12/27 11:12:59;;;;;;;40.43;16.77;;;;;7.60;101046.00;;;;5028222;28;20241;-68
2023/12/27 11:15:47;;;;;;;38.07;15.60;;;;;7.60;101033.00;;;;5037488;28;20253;-68
2023/12/27 11:18:35;;;;;;;16.00;7.70;;;;;7.70;101029.00;;;;5042552;28;20238;-69
2023/12/27 11:21:23;;;;;;;9.23;5.30;;;;;7.70;101028.00;;;;5042667;28;20223;-69
2023/12/27 11:24:11;;;;;;;11.13;5.50;;;;;7.80;101021.00;;;;5027629;28;20237;-69
2023/12/27 11:27:01;;;;;;;7.50;4.43;;;;;7.80;101008.00;;;;5040164;28;20274;-69
2023/12/27 11:29:48;;;;;;;10.60;4.90;;;;;7.90;101011.00;;;;5034955;28;20840;-70
2023/12/27 11:32:36;;;;;;;9.23;4.83;;;;;8.00;101000.00;;;;5036489;28;20378;-70
2023/12/27 11:35:24;;;;;;;9.30;5.20;;;;;8.00;100988.00;;;;5036841;28;20247;-70
2023/12/27 11:38:18;;;;;;;5.63;4.03;;;;;8.10;100989.00;;;;5040523;28;20263;-70
2023/12/27 11:41:06;;;;;;;5.10;2.93;;;;;8.10;100997.00;;;;5040280;28;20242;-69
2023/12/27 11:43:54;;;;;;;9.40;4.53;;;;;8.10;100996.00;;;;5036916;28;20300;-68
2023/12/27 11:46:43;;;;;;;5.23;3.87;;;;;8.10;100994.00;;;;5040877;28;20234;-69
2023/12/27 11:49:31;;;;;;;4.57;2.70;;;;;8.20;100972.00;;;;5034700;28;20337;-69
2023/12/27 11:52:19;;;;;;;6.83;3.80;;;;;8.20;100970.00;;;;5045074;28;20236;-71
2023/12/27 11:55:17;;;;;;;4.47;2.97;;;;;8.20;100962.00;;;;5035592;28;20355;-70
2023/12/27 11:58:04;;;;;;;4.43;2.27;;;;;8.40;100953.00;;;;5035386;28;20263;-69
2023/12/27 12:00:50;;;;;;;4.30;2.67;;;;;8.40;100961.00;;;;5043585;28;20320;-69
2023/12/27 12:03:37;;;;;;;4.30;2.73;;;;;8.50;100943.00;;;;5040345;28;20233;-70
2023/12/27 12:06:39;;;;;;;5.40;2.33;;;;;8.50;100933.00;;;;5041579;28;20225;-70
2023/12/27 12:09:31;;;;;;;5.00;2.10;;;;;8.50;100937.00;;;;5045517;28;20242;-69
2023/12/27 12:12:21;;;;;;;3.47;2.57;;;;;8.60;100933.00;;;;5045678;28;20335;-70
2023/12/27 12:15:09;;;;;;;3.97;2.40;;;;;8.60;100921.00;;;;5037905;28;20367;-69
2023/12/27 12:17:56;;;;;;;3.73;2.30;;;;;8.70;100919.00;;;;5042816;28;20255;-75
2023/12/27 12:20:43;;;;;;;2.87;2.17;;;;;8.80;100928.00;;;;5038972;28;20720;-70
2023/12/27 12:23:30;;;;;;;3.03;1.97;;;;;8.80;100929.00;;;;5041194;28;22249;-69
2023/12/27 12:26:17;;;;;;;2.00;1.50;;;;;8.80;100907.00;;;;5044403;28;20232;-71
2023/12/27 12:29:08;;;;;;;1.60;1.20;;;;;8.80;100902.00;;;;5039273;28;20229;-70
2023/12/27 12:31:55;;;;;;;3.77;2.20;;;;;8.90;100897.00;;;;5043251;28;20601;-69
2023/12/27 12:34:42;;;;;;;1.20;1.10;;;;;8.90;100897.00;;;;5043623;28;20226;-71
2023/12/27 12:37:29;;;;;;;1.67;1.57;;;;;8.90;100888.00;;;;5043376;28;20229;-71
2023/12/27 12:40:17;;;;;;;2.07;1.43;;;;;8.90;100882.00;;;;5039910;28;20645;-69
2023/12/27 12:43:04;;;;;;;1.60;1.30;;;;;8.90;100882.00;;;;5040368;28;20394;-70
2023/12/27 12:45:52;;;;;;;2.10;1.33;;;;;8.90;100870.00;;;;5043165;28;20241;-70
2023/12/27 12:48:39;;;;;;;67.57;26.00;;;;;8.90;100869.00;;;;5036805;28;20228;-71
2023/12/27 12:51:27;;;;;;;17.47;8.30;;;;;9.00;100851.00;;;;5033992;28;20237;-69
2023/12/27 12:54:14;;;;;;;1.80;1.60;;;;;9.00;100853.00;;;;5039804;28;20233;-71
2023/12/27 12:57:01;;;;;;;1.50;1.40;;;;;9.00;100844.00;;;;5040665;28;21235;-70
2023/12/27 12:59:48;;;;;;;56.90;20.73;;;;;9.00;100838.00;;;;5037829;28;20604;-69
2023/12/27 13:02:38;;;;;;;8.40;3.33;;;;;9.10;100835.00;;;;5034380;28;20305;-71
2023/12/27 13:05:27;;;;;;;1.67;1.23;;;;;9.10;100823.00;;;;5039824;28;20709;-71
2023/12/27 13:08:14;;;;;;;2.83;1.27;;;;;9.10;100823.00;;;;5034569;28;20241;-71
2023/12/27 13:11:01;;;;;;;2.10;1.30;;;;;9.00;100817.00;;;;5032246;28;20245;-72
2023/12/27 13:13:48;;;;;;;4.73;1.30;;;;;9.00;100814.00;;;;5039142;28;20229;-70
2023/12/27 13:16:34;;;;;;;1.47;1.27;;;;;9.10;100827.00;;;;5043515;28;20900;-68
2023/12/27 13:19:22;;;;;;;11.00;4.97;;;;;9.10;100821.00;;;;5038973;28;20243;-71
2023/12/27 13:22:09;;;;;;;21.23;8.93;;;;;9.10;100797.00;;;;5035817;28;20229;-71
2023/12/27 13:24:55;;;;;;;2.63;1.87;;;;;9.10;100798.00;;;;5037102;28;20220;-70
2023/12/27 13:27:42;;;;;;;1.33;1.20;;;;;9.10;100797.00;;;;5036910;28;20243;-68
2023/12/27 13:30:28;;;;;;;1.60;1.40;;;;;9.10;100797.00;;;;5042399;28;20395;-70
2023/12/27 13:33:15;;;;;;;1.53;1.20;;;;;9.10;100797.00;;;;5040888;28;20364;-70
2023/12/27 13:36:03;;;;;;;3.57;1.40;;;;;9.10;100793.00;;;;5039341;28;20236;-71
2023/12/27 13:38:49;;;;;;;2.20;1.30;;;;;9.10;100781.00;;;;5044401;28;20305;-70
2023/12/27 13:41:35;;;;;;;1.60;1.50;;;;;9.10;100776.00;;;;5039504;28;20228;-69
2023/12/27 13:44:21;;;;;;;4.03;1.60;;;;;9.10;100756.00;;;;5041821;28;20240;-71
2023/12/27 13:47:08;;;;;;;5.80;1.67;;;;;9.20;100749.00;;;;5040869;28;20224;-69
2023/12/27 13:49:54;;;;;;;1.33;1.23;;;;;9.20;100761.00;;;;5034191;28;20463;-70
2023/12/27 13:52:42;;;;;;;2.57;1.50;;;;;9.20;100759.00;;;;5037222;28;20236;-70